Time;durP1;ratioP1;P1;durP2;ratioP2;P2;SDS_P1;SDS_P2;PMS_P1;PMS_P2;Temp;Humidity;BMP_temperature;BMP_pressure;BME280_temperature;BME280_humidity;BME280_pressure;Samples;Min_cycle;Max_cycle;Signal;HPM_P1;HPM_P2
2021/06/13 00:00:13;;;;;;;9.65;6.65;;;;;;;;;;5057474;28;20053;-68
2021/06/13 00:02:42;;;;;;;8.40;7.15;;;;;;;;;;5074863;28;20113;-69
2021/06/13 00:05:10;;;;;;;6.72;6.13;;;;;;;;;;5057543;28;20080;-69
2021/06/13 00:07:38;;;;;;;8.57;6.95;;;;;;;;;;5073756;28;20422;-69
2021/06/13 00:10:06;;;;;;;9.80;7.05;;;;;;;;;;5073781;28;20049;-69
2021/06/13 00:12:32;;;;;;;8.40;6.40;;;;;;;;;;5073470;28;20093;-68
2021/06/13 00:14:59;;;;;;;7.75;6.88;;;;;;;;;;5085944;28;20051;-69
2021/06/13 00:17:26;;;;;;;13.00;7.38;;;;;;;;;;5074731;28;20048;-68
2021/06/13 00:19:52;;;;;;;8.45;7.50;;;;;;;;;;5057185;28;20049;-68
2021/06/13 00:22:19;;;;;;;8.60;6.60;;;;;;;;;;5073324;28;20450;-68
2021/06/13 00:24:45;;;;;;;7.68;6.65;;;;;;;;;;5074741;28;20141;-69
2021/06/13 00:27:12;;;;;;;9.02;7.30;;;;;;;;;;5089553;28;20410;-68
2021/06/13 00:29:38;;;;;;;10.90;7.53;;;;;;;;;;5084675;28;20098;-68
2021/06/13 00:32:08;;;;;;;7.55;6.72;;;;;;;;;;5083495;28;20044;-67
2021/06/13 00:34:35;;;;;;;8.35;6.95;;;;;;;;;;5073789;28;20049;-69
2021/06/13 00:37:01;;;;;;;9.45;6.53;;;;;;;;;;5073345;28;20524;-70
2021/06/13 00:39:28;;;;;;;8.30;6.90;;;;;;;;;;5072888;28;20095;-68
2021/06/13 00:41:54;;;;;;;8.23;7.43;;;;;;;;;;5074174;28;20095;-68
2021/06/13 00:44:21;;;;;;;10.55;7.75;;;;;;;;;;5081117;28;20048;-68
2021/06/13 00:46:47;;;;;;;10.23;6.80;;;;;;;;;;5075017;28;20048;-68
2021/06/13 00:49:14;;;;;;;7.07;6.38;;;;;;;;;;5078297;28;20077;-68
2021/06/13 00:51:41;;;;;;;8.23;7.07;;;;;;;;;;5092887;28;20105;-67
2021/06/13 00:54:07;;;;;;;10.75;7.07;;;;;;;;;;5094055;28;20051;-67
2021/06/13 00:56:34;;;;;;;8.27;6.55;;;;;;;;;;5093019;28;20043;-68
2021/06/13 00:59:00;;;;;;;9.82;6.50;;;;;;;;;;5076510;28;20087;-68
2021/06/13 01:01:27;;;;;;;9.57;7.68;;;;;;;;;;5076193;28;20453;-68
2021/06/13 01:03:54;;;;;;;8.52;6.65;;;;;;;;;;5092773;28;20055;-68
2021/06/13 01:06:25;;;;;;;9.10;7.03;;;;;;;;;;5078167;28;20095;-68
2021/06/13 01:08:57;;;;;;;8.23;6.43;;;;;;;;;;5041013;28;20048;-68
2021/06/13 01:11:48;;;;;;;8.20;6.10;;;;;;;;;;5067449;28;20079;-68
2021/06/13 01:14:36;;;;;;;11.00;6.68;;;;;;;;;;5092273;28;20487;-68
2021/06/13 01:17:35;;;;;;;9.27;7.47;;;;;;;;;;5073519;28;20136;-68
2021/06/13 01:20:13;;;;;;;9.45;7.32;;;;;;;;;;5074228;28;20080;-68
2021/06/13 01:23:14;;;;;;;9.52;7.55;;;;;;;;;;5093187;28;20084;-68
2021/06/13 01:25:59;;;;;;;9.05;6.78;;;;;;;;;;5077414;28;20053;-68
2021/06/13 01:28:41;;;;;;;9.68;7.60;;;;;;;;;;5086697;28;20052;-68
2021/06/13 01:31:08;;;;;;;11.35;6.72;;;;;;;;;;5089282;28;20077;-68
2021/06/13 01:33:35;;;;;;;10.88;7.43;;;;;;;;;;5058063;28;20048;-67
2021/06/13 01:36:03;;;;;;;9.23;6.90;;;;;;;;;;5088194;28;20080;-67
2021/06/13 01:38:29;;;;;;;9.35;7.18;;;;;;;;;;5084611;28;20519;-67
2021/06/13 01:41:00;;;;;;;8.98;6.68;;;;;;;;;;5075590;28;20080;-67
2021/06/13 01:43:26;;;;;;;10.10;7.15;;;;;;;;;;5091337;28;20082;-67
2021/06/13 01:45:53;;;;;;;8.65;6.60;;;;;;;;;;5085435;28;20077;-67
2021/06/13 01:48:21;;;;;;;10.73;6.60;;;;;;;;;;5075451;28;20101;-67
2021/06/13 01:50:48;;;;;;;7.93;7.00;;;;;;;;;;5075645;28;20134;-67
2021/06/13 01:53:17;;;;;;;8.07;6.75;;;;;;;;;;5074988;28;20529;-66
2021/06/13 01:55:47;;;;;;;8.90;6.28;;;;;;;;;;5061432;28;20494;-66
2021/06/13 01:58:15;;;;;;;7.25;6.22;;;;;;;;;;5071610;28;20080;-66
2021/06/13 02:00:46;;;;;;;8.45;7.05;;;;;;;;;;5069890;28;20559;-68
2021/06/13 02:03:13;;;;;;;8.30;6.28;;;;;;;;;;5079409;28;20463;-67
2021/06/13 02:05:41;;;;;;;13.15;6.60;;;;;;;;;;5066561;28;20095;-66
2021/06/13 02:08:08;;;;;;;13.30;7.05;;;;;;;;;;5091633;28;20101;-66
2021/06/13 02:10:35;;;;;;;8.23;6.32;;;;;;;;;;5058697;28;20080;-67
2021/06/13 02:13:01;;;;;;;9.98;6.00;;;;;;;;;;5054617;28;20087;-67
2021/06/13 02:15:28;;;;;;;10.13;6.22;;;;;;;;;;5064277;28;20087;-67
2021/06/13 02:17:55;;;;;;;9.25;7.35;;;;;;;;;;5071322;28;20079;-67
2021/06/13 02:20:28;;;;;;;7.88;7.07;;;;;;;;;;5074533;28;20055;-67
2021/06/13 02:22:54;;;;;;;9.68;6.82;;;;;;;;;;5091294;28;20429;-67
2021/06/13 02:25:22;;;;;;;9.77;6.88;;;;;;;;;;5069488;28;20045;-67
2021/06/13 02:27:55;;;;;;;9.90;6.57;;;;;;;;;;5090653;28;20070;-67
2021/06/13 02:30:22;;;;;;;9.02;6.57;;;;;;;;;;5075626;28;20079;-67
2021/06/13 02:32:49;;;;;;;8.23;6.80;;;;;;;;;;5083078;28;20102;-68
2021/06/13 02:35:17;;;;;;;9.93;6.90;;;;;;;;;;5070938;28;20502;-68
2021/06/13 02:37:45;;;;;;;8.07;6.15;;;;;;;;;;5054191;28;20461;-68
2021/06/13 02:40:13;;;;;;;7.95;6.22;;;;;;;;;;5070990;28;20082;-68
2021/06/13 02:42:40;;;;;;;8.57;7.00;;;;;;;;;;5063597;28;20444;-68
2021/06/13 02:45:09;;;;;;;9.48;7.13;;;;;;;;;;5054117;28;20091;-68
2021/06/13 02:47:37;;;;;;;10.20;7.18;;;;;;;;;;5059544;28;20080;-68
2021/06/13 02:50:05;;;;;;;8.23;7.32;;;;;;;;;;5070745;28;20096;-68
2021/06/13 02:52:41;;;;;;;8.45;6.68;;;;;;;;;;5076341;28;20091;-68
2021/06/13 02:55:15;;;;;;;9.43;8.45;;;;;;;;;;5074917;28;20083;-67
2021/06/13 02:57:44;;;;;;;9.25;7.25;;;;;;;;;;5074608;28;20451;-68
2021/06/13 03:00:11;;;;;;;8.75;6.88;;;;;;;;;;5090889;28;20099;-67
2021/06/13 03:02:44;;;;;;;10.68;7.63;;;;;;;;;;5085099;28;20044;-68
2021/06/13 03:05:11;;;;;;;11.15;6.95;;;;;;;;;;5071927;28;20095;-67
2021/06/13 03:07:38;;;;;;;10.27;7.03;;;;;;;;;;5053858;28;20048;-67
2021/06/13 03:10:07;;;;;;;9.82;7.38;;;;;;;;;;5070231;28;20080;-68
2021/06/13 03:12:34;;;;;;;9.77;7.03;;;;;;;;;;5053444;28;20063;-68
2021/06/13 03:15:01;;;;;;;10.80;9.02;;;;;;;;;;5070542;28;20123;-69
2021/06/13 03:17:28;;;;;;;8.77;6.70;;;;;;;;;;5057029;28;20106;-68
2021/06/13 03:19:55;;;;;;;8.48;6.90;;;;;;;;;;5073935;28;20080;-68
2021/06/13 03:22:22;;;;;;;12.00;7.85;;;;;;;;;;5074649;28;20419;-68
2021/06/13 03:24:50;;;;;;;10.57;6.82;;;;;;;;;;5053499;28;20098;-68
2021/06/13 03:27:17;;;;;;;8.15;6.72;;;;;;;;;;5067886;28;20083;-68
2021/06/13 03:29:45;;;;;;;13.23;7.95;;;;;;;;;;5070350;28;20094;-67
2021/06/13 03:32:12;;;;;;;9.05;7.07;;;;;;;;;;5070778;28;20110;-67
2021/06/13 03:34:40;;;;;;;9.82;6.70;;;;;;;;;;5073574;28;20075;-67
2021/06/13 03:37:07;;;;;;;10.82;6.18;;;;;;;;;;5073852;28;20135;-67
2021/06/13 03:39:34;;;;;;;10.20;7.18;;;;;;;;;;5053499;28;20457;-67
2021/06/13 03:42:00;;;;;;;8.35;6.75;;;;;;;;;;5062779;28;20084;-67
2021/06/13 03:44:27;;;;;;;13.27;7.50;;;;;;;;;;5076782;28;20047;-68
2021/06/13 03:46:55;;;;;;;9.23;6.85;;;;;;;;;;5061737;28;20070;-67
2021/06/13 03:49:22;;;;;;;9.63;6.22;;;;;;;;;;5074046;28;20087;-68
2021/06/13 03:51:50;;;;;;;8.75;6.00;;;;;;;;;;5090397;28;20082;-68
2021/06/13 03:54:17;;;;;;;8.02;6.22;;;;;;;;;;5072753;28;20079;-68
2021/06/13 03:56:45;;;;;;;8.20;6.40;;;;;;;;;;5072116;28;20517;-68
2021/06/13 03:59:12;;;;;;;9.75;6.35;;;;;;;;;;5073455;28;20087;-68
2021/06/13 04:01:40;;;;;;;7.30;6.13;;;;;;;;;;5073240;28;20083;-68
2021/06/13 04:04:06;;;;;;;8.40;6.63;;;;;;;;;;5089143;28;20047;-68
2021/06/13 04:06:33;;;;;;;8.00;6.10;;;;;;;;;;5090071;28;20048;-69
2021/06/13 04:08:59;;;;;;;9.35;5.80;;;;;;;;;;5090218;28;20044;-69
2021/06/13 04:11:26;;;;;;;9.52;5.97;;;;;;;;;;5073331;28;20071;-69
2021/06/13 04:13:53;;;;;;;7.35;6.32;;;;;;;;;;5082994;28;20090;-69
2021/06/13 04:16:21;;;;;;;9.60;7.20;;;;;;;;;;5073115;28;20127;-68
2021/06/13 04:18:48;;;;;;;8.77;6.15;;;;;;;;;;5066860;28;20126;-68
2021/06/13 04:21:15;;;;;;;11.98;6.82;;;;;;;;;;5061048;28;20103;-69
2021/06/13 04:23:43;;;;;;;8.02;6.25;;;;;;;;;;5088549;28;20668;-68
2021/06/13 04:26:17;;;;;;;8.18;5.97;;;;;;;;;;5077351;28;20044;-68
2021/06/13 04:28:44;;;;;;;8.23;6.80;;;;;;;;;;5094180;28;20537;-67
2021/06/13 04:31:13;;;;;;;10.88;5.97;;;;;;;;;;5077042;28;20091;-67
2021/06/13 04:33:42;;;;;;;9.65;6.20;;;;;;;;;;5092907;28;20396;-67
2021/06/13 04:36:08;;;;;;;9.30;6.25;;;;;;;;;;5093722;28;20481;-67
2021/06/13 04:38:36;;;;;;;9.77;6.80;;;;;;;;;;5093366;28;20176;-67
2021/06/13 04:41:03;;;;;;;8.63;5.82;;;;;;;;;;5093439;28;20094;-68
2021/06/13 04:43:30;;;;;;;9.30;6.25;;;;;;;;;;5092908;28;20083;-69
2021/06/13 04:45:56;;;;;;;7.75;5.95;;;;;;;;;;5076792;28;20051;-67
2021/06/13 04:48:23;;;;;;;6.75;5.90;;;;;;;;;;5094364;28;20484;-67
2021/06/13 04:50:50;;;;;;;7.80;6.50;;;;;;;;;;5094459;28;20113;-66
2021/06/13 04:53:46;;;;;;;9.23;6.00;;;;;;;;;;5089746;28;20076;-67
2021/06/13 04:56:52;;;;;;;12.68;5.75;;;;;;;;;;5092520;28;20080;-67
2021/06/13 04:59:18;;;;;;;7.28;5.63;;;;;;;;;;5092946;28;20570;-67
2021/06/13 05:01:45;;;;;;;6.72;5.60;;;;;;;;;;5093977;28;20058;-67
2021/06/13 05:04:12;;;;;;;6.70;5.63;;;;;;;;;;5073812;28;20499;-67
2021/06/13 05:06:44;;;;;;;8.30;5.00;;;;;;;;;;5026239;28;23837;-67
2021/06/13 05:09:11;;;;;;;8.75;5.63;;;;;;;;;;5076098;28;20048;-67
2021/06/13 05:11:38;;;;;;;7.68;4.80;;;;;;;;;;5114196;28;20485;-67
2021/06/13 05:14:05;;;;;;;8.02;4.72;;;;;;;;;;5096220;28;20087;-67
2021/06/13 05:16:32;;;;;;;7.85;4.60;;;;;;;;;;5113124;28;20094;-67
2021/06/13 05:18:58;;;;;;;6.50;4.82;;;;;;;;;;5096556;28;20047;-67
2021/06/13 05:21:25;;;;;;;6.20;4.78;;;;;;;;;;5114145;28;20502;-68
2021/06/13 05:23:51;;;;;;;5.28;4.22;;;;;;;;;;5113876;28;20086;-67
2021/06/13 05:26:18;;;;;;;7.75;5.45;;;;;;;;;;5109984;28;20082;-67
2021/06/13 05:28:45;;;;;;;11.93;6.55;;;;;;;;;;5101819;28;20090;-67
2021/06/13 05:31:13;;;;;;;9.15;4.28;;;;;;;;;;5092406;28;20087;-68
2021/06/13 05:33:39;;;;;;;10.95;4.63;;;;;;;;;;5092660;28;20053;-68
2021/06/13 05:36:06;;;;;;;7.53;4.40;;;;;;;;;;5093545;28;20082;-66
2021/06/13 05:38:33;;;;;;;12.35;4.40;;;;;;;;;;5093389;28;20485;-67
2021/06/13 05:40:59;;;;;;;6.85;4.32;;;;;;;;;;5092026;28;20090;-68
2021/06/13 05:43:26;;;;;;;10.43;4.50;;;;;;;;;;5092983;28;20083;-66
2021/06/13 05:45:52;;;;;;;5.95;3.72;;;;;;;;;;5093348;28;20048;-67
2021/06/13 05:48:19;;;;;;;9.77;4.45;;;;;;;;;;5091981;28;20140;-66
2021/06/13 05:50:46;;;;;;;6.60;4.40;;;;;;;;;;5093486;28;20079;-68
2021/06/13 05:53:12;;;;;;;8.43;4.70;;;;;;;;;;5091736;28;20080;-67
2021/06/13 05:55:40;;;;;;;6.55;4.13;;;;;;;;;;5093388;28;20083;-67
2021/06/13 05:58:07;;;;;;;6.55;4.00;;;;;;;;;;5098902;28;20043;-67
2021/06/13 06:00:35;;;;;;;6.72;3.97;;;;;;;;;;5112174;28;20120;-67
2021/06/13 06:03:02;;;;;;;8.70;4.53;;;;;;;;;;5095334;28;20047;-67
2021/06/13 06:05:30;;;;;;;7.00;4.28;;;;;;;;;;5095540;28;20093;-66
2021/06/13 06:07:57;;;;;;;8.05;5.03;;;;;;;;;;5095268;28;20558;-67
2021/06/13 06:10:25;;;;;;;5.10;4.35;;;;;;;;;;5095154;28;20060;-69
2021/06/13 06:12:56;;;;;;;5.68;4.70;;;;;;;;;;5112654;28;20075;-70
2021/06/13 06:15:26;;;;;;;7.63;5.03;;;;;;;;;;5095811;28;20187;-70
2021/06/13 06:17:53;;;;;;;7.78;4.45;;;;;;;;;;5121535;27;20100;-70
2021/06/13 06:20:21;;;;;;;10.68;4.50;;;;;;;;;;5133531;27;20047;-70
2021/06/13 06:22:48;;;;;;;6.35;4.43;;;;;;;;;;5116048;27;20085;-70
2021/06/13 06:25:14;;;;;;;6.20;4.50;;;;;;;;;;5133334;27;20074;-68
2021/06/13 06:27:42;;;;;;;5.25;3.92;;;;;;;;;;5133132;27;20073;-66
2021/06/13 06:30:46;;;;;;;7.38;4.43;;;;;;;;;;5138967;27;20047;-68
2021/06/13 06:33:13;;;;;;;11.40;4.22;;;;;;;;;;5132589;27;20085;-68
2021/06/13 06:35:39;;;;;;;6.85;4.97;;;;;;;;;;5111835;28;20081;-69
2021/06/13 06:38:07;;;;;;;8.30;5.22;;;;;;;;;;5112751;28;20043;-68
2021/06/13 06:40:34;;;;;;;6.90;4.20;;;;;;;;;;5111348;28;20078;-69
2021/06/13 06:43:00;;;;;;;7.10;4.30;;;;;;;;;;5113194;28;20501;-68
2021/06/13 06:45:27;;;;;;;7.45;4.45;;;;;;;;;;5123401;27;20075;-66
2021/06/13 06:47:54;;;;;;;7.85;5.10;;;;;;;;;;5125641;27;20200;-65
2021/06/13 06:50:21;;;;;;;8.20;4.93;;;;;;;;;;5111151;28;20079;-66
2021/06/13 06:52:47;;;;;;;9.57;4.68;;;;;;;;;;5112322;28;20079;-65
2021/06/13 06:55:14;;;;;;;8.85;4.72;;;;;;;;;;5113924;27;20075;-65
2021/06/13 06:57:43;;;;;;;5.93;4.15;;;;;;;;;;5111106;28;20132;-66
2021/06/13 07:00:11;;;;;;;6.70;4.55;;;;;;;;;;5111099;28;20102;-66
2021/06/13 07:02:37;;;;;;;8.95;5.35;;;;;;;;;;5112029;28;20055;-65
2021/06/13 07:05:05;;;;;;;9.00;4.80;;;;;;;;;;5114566;27;20081;-65
2021/06/13 07:07:31;;;;;;;4.28;3.63;;;;;;;;;;5111021;28;20124;-66
2021/06/13 07:09:58;;;;;;;5.93;4.65;;;;;;;;;;5094224;28;20051;-65
2021/06/13 07:12:25;;;;;;;6.47;4.20;;;;;;;;;;5111767;28;20090;-65
2021/06/13 07:14:52;;;;;;;6.03;4.07;;;;;;;;;;5112110;28;20409;-65
2021/06/13 07:17:19;;;;;;;6.75;4.38;;;;;;;;;;5110825;28;20094;-65
2021/06/13 07:19:46;;;;;;;5.95;4.45;;;;;;;;;;5110938;28;20062;-66
2021/06/13 07:22:12;;;;;;;8.25;4.20;;;;;;;;;;5111897;28;20091;-66
2021/06/13 07:24:39;;;;;;;9.77;3.80;;;;;;;;;;5111920;28;20075;-66
2021/06/13 07:27:05;;;;;;;9.98;3.97;;;;;;;;;;5111925;28;20051;-66
2021/06/13 07:29:32;;;;;;;6.38;4.03;;;;;;;;;;5094160;28;20094;-65
2021/06/13 07:31:59;;;;;;;6.80;4.13;;;;;;;;;;5094110;28;20075;-65
2021/06/13 07:34:25;;;;;;;6.70;3.58;;;;;;;;;;5111625;28;20122;-65
2021/06/13 07:36:52;;;;;;;5.00;3.15;;;;;;;;;;5130872;28;20055;-65
2021/06/13 07:39:18;;;;;;;12.13;3.50;;;;;;;;;;5131148;28;20466;-65
2021/06/13 07:41:45;;;;;;;7.13;4.18;;;;;;;;;;5131230;28;20083;-66
2021/06/13 07:44:12;;;;;;;6.97;3.85;;;;;;;;;;5132367;27;20083;-66
2021/06/13 07:46:38;;;;;;;5.78;3.38;;;;;;;;;;5112601;27;20090;-65
2021/06/13 07:49:05;;;;;;;5.18;3.22;;;;;;;;;;5110556;28;20138;-65
2021/06/13 07:51:32;;;;;;;5.50;3.20;;;;;;;;;;5110599;28;20055;-65
2021/06/13 07:53:58;;;;;;;7.72;3.30;;;;;;;;;;5110408;28;20131;-66
2021/06/13 07:56:25;;;;;;;7.25;3.05;;;;;;;;;;5130426;27;20082;-66
2021/06/13 07:58:51;;;;;;;6.60;2.97;;;;;;;;;;5118487;27;20075;-66
2021/06/13 08:01:18;;;;;;;4.80;2.97;;;;;;;;;;5136268;27;20051;-66
2021/06/13 08:03:44;;;;;;;6.28;3.50;;;;;;;;;;5136066;27;20373;-67
2021/06/13 08:06:11;;;;;;;5.85;2.90;;;;;;;;;;5134812;27;20051;-66
2021/06/13 08:08:38;;;;;;;5.57;3.35;;;;;;;;;;5136043;27;20051;-66
2021/06/13 08:11:04;;;;;;;7.70;3.30;;;;;;;;;;5136088;27;20047;-67
2021/06/13 08:13:31;;;;;;;6.68;3.30;;;;;;;;;;5117704;27;20477;-68
2021/06/13 08:15:58;;;;;;;8.25;3.67;;;;;;;;;;5114060;28;20489;-67
2021/06/13 08:18:25;;;;;;;8.65;3.40;;;;;;;;;;5115092;28;20105;-66
2021/06/13 08:20:52;;;;;;;5.78;2.75;;;;;;;;;;5114455;28;20062;-66
2021/06/13 08:23:19;;;;;;;6.28;2.83;;;;;;;;;;5114811;28;20100;-66
2021/06/13 08:25:45;;;;;;;6.15;3.50;;;;;;;;;;5113794;28;20048;-66
2021/06/13 08:28:12;;;;;;;8.50;3.47;;;;;;;;;;5121907;27;20074;-68
2021/06/13 08:30:38;;;;;;;4.75;2.97;;;;;;;;;;5135932;27;20092;-66
2021/06/13 08:33:05;;;;;;;6.13;3.25;;;;;;;;;;5135324;27;20058;-67
2021/06/13 08:35:32;;;;;;;3.95;2.70;;;;;;;;;;5125085;27;20122;-66
2021/06/13 08:38:02;;;;;;;3.75;3.40;;;;;;;;;;5117037;27;20095;-66
2021/06/13 08:40:29;;;;;;;6.60;3.55;;;;;;;;;;5134389;27;20094;-66
2021/06/13 08:42:56;;;;;;;7.03;3.50;;;;;;;;;;5117032;27;20085;-67
2021/06/13 08:45:24;;;;;;;5.30;3.13;;;;;;;;;;5116260;27;20047;-67
2021/06/13 08:47:52;;;;;;;4.28;3.15;;;;;;;;;;5134366;27;20043;-66
2021/06/13 08:50:20;;;;;;;5.72;3.10;;;;;;;;;;5134194;27;20086;-66
2021/06/13 08:52:48;;;;;;;5.95;3.92;;;;;;;;;;5130646;27;20090;-67
2021/06/13 08:55:15;;;;;;;5.72;3.17;;;;;;;;;;5122793;27;20083;-67
2021/06/13 08:57:42;;;;;;;6.30;3.90;;;;;;;;;;5114710;28;20112;-67
2021/06/13 09:00:14;;;;;;;6.18;3.83;;;;;;;;;;5129847;27;20043;-66
2021/06/13 09:02:41;;;;;;;7.85;3.53;;;;;;;;;;5117862;27;20082;-67
2021/06/13 09:05:09;;;;;;;6.03;3.30;;;;;;;;;;5123179;27;20497;-67
2021/06/13 09:07:47;;;;;;;6.82;3.20;;;;;;;;;;5122568;27;20048;-66
2021/06/13 09:10:18;;;;;;;6.43;3.25;;;;;;;;;;5106358;27;20132;-67
2021/06/13 09:12:46;;;;;;;5.93;3.67;;;;;;;;;;5117205;27;20466;-67
2021/06/13 09:15:13;;;;;;;5.90;3.15;;;;;;;;;;5127875;27;20050;-66
2021/06/13 09:17:43;;;;;;;3.92;3.00;;;;;;;;;;5100410;28;20079;-65
2021/06/13 09:20:21;;;;;;;8.38;3.60;;;;;;;;;;5111404;27;20097;-65
2021/06/13 09:23:15;;;;;;;8.48;2.83;;;;;;;;;;5133256;27;20509;-66
2021/06/13 09:25:43;;;;;;;6.80;3.50;;;;;;;;;;5133368;27;20090;-66
2021/06/13 09:28:19;;;;;;;6.18;3.30;;;;;;;;;;5100293;28;20039;-68
2021/06/13 09:30:48;;;;;;;10.77;3.95;;;;;;;;;;5111975;27;20047;-68
2021/06/13 09:33:26;;;;;;;7.20;2.80;;;;;;;;;;5114691;27;20043;-65
2021/06/13 09:35:54;;;;;;;5.30;3.33;;;;;;;;;;5112345;28;20040;-66
2021/06/13 09:38:29;;;;;;;5.32;3.10;;;;;;;;;;5110932;28;20047;-68
2021/06/13 09:41:05;;;;;;;3.72;2.55;;;;;;;;;;5130033;27;20078;-65
2021/06/13 09:43:46;;;;;;;5.50;3.35;;;;;;;;;;5133181;27;20057;-67
2021/06/13 09:46:22;;;;;;;7.25;3.17;;;;;;;;;;5116584;27;20074;-68
2021/06/13 09:48:50;;;;;;;7.60;3.20;;;;;;;;;;5133055;27;20142;-68
2021/06/13 09:51:22;;;;;;;6.45;3.20;;;;;;;;;;5133384;27;20076;-68
2021/06/13 09:53:52;;;;;;;5.57;3.03;;;;;;;;;;5131939;27;20081;-68
2021/06/13 09:56:31;;;;;;;5.53;3.10;;;;;;;;;;5133445;27;20086;-68
2021/06/13 09:59:21;;;;;;;6.83;3.70;;;;;;;;;;5133182;27;20082;-68
2021/06/13 10:01:55;;;;;;;5.95;3.05;;;;;;;;;;5128797;27;20324;-67
2021/06/13 10:04:26;;;;;;;3.90;2.60;;;;;;;;;;5129680;27;20840;-66
2021/06/13 10:07:02;;;;;;;5.05;3.75;;;;;;;;;;5124561;27;20143;-68
2021/06/13 10:09:37;;;;;;;3.88;3.15;;;;;;;;;;5112596;27;20070;-71
2021/06/13 10:12:07;;;;;;;7.10;3.80;;;;;;;;;;5117272;27;20051;-69
2021/06/13 10:14:41;;;;;;;4.38;3.13;;;;;;;;;;5116942;27;20076;-69
2021/06/13 10:17:08;;;;;;;5.82;3.13;;;;;;;;;;5116303;27;20729;-69
2021/06/13 10:19:38;;;;;;;8.07;2.72;;;;;;;;;;5116636;27;20134;-70
2021/06/13 10:22:06;;;;;;;8.07;2.65;;;;;;;;;;5117007;27;20048;-70
2021/06/13 10:24:35;;;;;;;5.72;3.03;;;;;;;;;;5112277;27;20089;-70
2021/06/13 10:27:17;;;;;;;3.87;2.90;;;;;;;;;;5116480;27;20052;-69
2021/06/13 10:29:45;;;;;;;3.35;2.47;;;;;;;;;;5120353;27;20293;-69
2021/06/13 10:32:13;;;;;;;5.13;2.67;;;;;;;;;;5101773;27;20564;-70
2021/06/13 10:34:41;;;;;;;6.35;2.67;;;;;;;;;;5119343;27;20054;-71
2021/06/13 10:37:10;;;;;;;5.88;2.47;;;;;;;;;;5119140;27;20047;-69
2021/06/13 10:39:38;;;;;;;6.28;2.83;;;;;;;;;;5117968;27;20051;-69
2021/06/13 10:42:15;;;;;;;5.40;2.83;;;;;;;;;;5101820;27;20047;-69
2021/06/13 10:44:51;;;;;;;7.72;3.40;;;;;;;;;;5118996;27;20039;-67
2021/06/13 10:47:20;;;;;;;5.03;2.90;;;;;;;;;;5119523;27;20451;-66
2021/06/13 10:49:49;;;;;;;4.82;2.70;;;;;;;;;;5119257;27;20137;-67
2021/06/13 10:52:22;;;;;;;3.05;2.00;;;;;;;;;;5100363;27;20135;-67
2021/06/13 10:54:50;;;;;;;3.72;1.70;;;;;;;;;;5119149;27;20112;-66
2021/06/13 10:57:19;;;;;;;2.63;1.98;;;;;;;;;;5116413;27;20078;-70
2021/06/13 10:59:46;;;;;;;5.38;1.88;;;;;;;;;;5118058;27;20130;-70
2021/06/13 11:02:22;;;;;;;3.95;2.13;;;;;;;;;;5120769;27;20486;-71
2021/06/13 11:04:53;;;;;;;2.83;2.00;;;;;;;;;;5118514;27;20502;-70
2021/06/13 11:10:25;;;;;;;4.05;2.35;;;;;;;;;;5110523;28;20051;-67
2021/06/13 11:12:58;;;;;;;3.47;1.95;;;;;;;;;;5118505;27;20079;-66
2021/06/13 11:15:25;;;;;;;5.43;2.20;;;;;;;;;;5084241;22;20418;-69
2021/06/13 11:17:55;;;;;;;4.97;2.28;;;;;;;;;;5050818;28;20087;-69
2021/06/13 11:23:08;;;;;;;5.82;3.08;;;;;;;;;;5050324;28;20088;-69
2021/06/13 11:25:40;;;;;;;5.35;1.95;;;;;;;;;;5049644;28;20116;-69
2021/06/13 11:28:12;;;;;;;5.93;2.70;;;;;;;;;;5050705;28;20155;-68
2021/06/13 11:30:44;;;;;;;5.63;2.45;;;;;;;;;;5049900;28;20480;-70
2021/06/13 11:33:12;;;;;;;4.93;2.13;;;;;;;;;;5036792;28;20048;-67
2021/06/13 11:35:45;;;;;;;7.60;2.28;;;;;;;;;;5051018;28;20128;-67
2021/06/13 11:38:12;;;;;;;3.42;1.75;;;;;;;;;;5055231;28;20083;-67
2021/06/13 11:40:49;;;;;;;4.25;2.05;;;;;;;;;;5054181;28;20044;-67
2021/06/13 11:43:18;;;;;;;3.30;1.88;;;;;;;;;;5051070;28;20073;-67
2021/06/13 11:45:55;;;;;;;3.80;2.38;;;;;;;;;;5052547;28;20068;-67
2021/06/13 11:48:21;;;;;;;4.57;1.88;;;;;;;;;;5051982;28;20140;-67
2021/06/13 11:51:11;;;;;;;4.43;1.70;;;;;;;;;;5051704;28;20085;-67
2021/06/13 11:53:53;;;;;;;3.03;1.92;;;;;;;;;;5051195;28;20072;-68
2021/06/13 11:58:59;;;;;;;2.75;1.95;;;;;;;;;;5050311;28;20053;-67
2021/06/13 12:01:26;;;;;;;2.90;1.48;;;;;;;;;;5052458;28;20132;-67
2021/06/13 12:03:54;;;;;;;8.98;2.53;;;;;;;;;;5051308;28;20156;-67
2021/06/13 12:06:22;;;;;;;5.28;2.20;;;;;;;;;;5031392;28;20053;-67
2021/06/13 12:08:50;;;;;;;3.53;1.60;;;;;;;;;;5051341;28;20163;-66
2021/06/13 12:11:53;;;;;;;4.43;2.10;;;;;;;;;;5052431;28;20088;-67
2021/06/13 12:14:35;;;;;;;4.50;1.63;;;;;;;;;;5038597;28;20048;-68
2021/06/13 12:17:06;;;;;;;5.15;1.88;;;;;;;;;;5051652;28;20120;-68
2021/06/13 12:19:45;;;;;;;4.88;1.77;;;;;;;;;;5033916;28;20048;-69
2021/06/13 12:22:54;;;;;;;3.40;1.50;;;;;;;;;;5051720;28;20140;-69
2021/06/13 12:28:09;;;;;;;6.38;1.88;;;;;;;;;;5051590;28;20419;-69
2021/06/13 12:30:38;;;;;;;5.60;1.98;;;;;;;;;;5052790;28;20492;-69
2021/06/13 12:33:07;;;;;;;2.25;1.50;;;;;;;;;;5052395;28;20575;-70
2021/06/13 12:35:37;;;;;;;3.63;1.67;;;;;;;;;;5052032;28;20080;-69
2021/06/13 12:38:07;;;;;;;2.30;1.35;;;;;;;;;;5052920;28;20463;-70
2021/06/13 12:40:37;;;;;;;2.08;1.40;;;;;;;;;;5052913;28;20555;-70
2021/06/13 12:43:04;;;;;;;2.28;1.38;;;;;;;;;;5031828;28;20080;-70
2021/06/13 12:45:31;;;;;;;3.33;1.65;;;;;;;;;;5052611;28;20092;-70
2021/06/13 12:47:59;;;;;;;1.33;1.05;;;;;;;;;;5053104;28;20132;-69
2021/06/13 12:50:35;;;;;;;4.22;1.92;;;;;;;;;;5052825;28;20092;-68
2021/06/13 12:53:03;;;;;;;2.22;1.63;;;;;;;;;;5048612;28;20128;-69
2021/06/13 12:55:40;;;;;;;3.00;1.08;;;;;;;;;;5051766;28;20467;-69
2021/06/13 12:58:11;;;;;;;4.55;1.67;;;;;;;;;;5052379;28;20103;-68
2021/06/13 13:00:38;;;;;;;2.42;1.00;;;;;;;;;;5051941;28;20198;-68
2021/06/13 13:03:12;;;;;;;1.40;0.90;;;;;;;;;;5028767;28;20052;-68
2021/06/13 13:05:40;;;;;;;3.05;1.20;;;;;;;;;;5033732;28;20097;-67
2021/06/13 13:08:17;;;;;;;1.25;1.00;;;;;;;;;;5030670;28;20102;-69
2021/06/13 13:10:54;;;;;;;1.15;1.05;;;;;;;;;;5052264;28;20503;-69
2021/06/13 13:13:34;;;;;;;1.92;1.05;;;;;;;;;;5051589;28;20076;-69
2021/06/13 13:16:04;;;;;;;3.33;1.33;;;;;;;;;;5051299;28;20534;-69
2021/06/13 13:18:39;;;;;;;1.30;0.95;;;;;;;;;;5052908;28;20053;-69
2021/06/13 13:21:05;;;;;;;2.67;1.13;;;;;;;;;;5053248;28;20102;-68
2021/06/13 13:23:40;;;;;;;1.77;1.02;;;;;;;;;;5035849;28;20077;-69
2021/06/13 13:26:08;;;;;;;3.22;1.40;;;;;;;;;;5053201;28;20045;-69
2021/06/13 13:28:40;;;;;;;3.50;1.00;;;;;;;;;;5035932;28;20088;-69
2021/06/13 13:31:10;;;;;;;2.42;1.20;;;;;;;;;;5053487;28;20080;-69
2021/06/13 13:33:44;;;;;;;3.47;1.27;;;;;;;;;;5053134;28;20200;-69
2021/06/13 13:36:27;;;;;;;1.45;0.95;;;;;;;;;;5053145;28;20053;-69
2021/06/13 13:38:55;;;;;;;3.40;1.83;;;;;;;;;;5037692;28;20084;-69
2021/06/13 13:41:22;;;;;;;1.83;0.98;;;;;;;;;;5035610;28;20533;-69
2021/06/13 13:43:59;;;;;;;3.78;1.30;;;;;;;;;;5018932;28;20392;-69
2021/06/13 13:46:36;;;;;;;3.35;1.33;;;;;;;;;;5052628;28;20565;-69
2021/06/13 13:49:05;;;;;;;2.90;1.48;;;;;;;;;;5053233;28;20045;-69
2021/06/13 13:51:49;;;;;;;1.02;0.90;;;;;;;;;;5053258;28;20139;-69
2021/06/13 13:54:33;;;;;;;3.22;1.10;;;;;;;;;;5052524;28;20080;-69
2021/06/13 13:57:18;;;;;;;1.77;1.10;;;;;;;;;;5052854;28;20076;-69
2021/06/13 13:59:46;;;;;;;1.55;1.00;;;;;;;;;;5052929;28;20057;-69
2021/06/13 14:02:13;;;;;;;2.92;1.20;;;;;;;;;;5052561;28;20522;-69
2021/06/13 14:04:40;;;;;;;1.85;1.52;;;;;;;;;;5051750;28;20049;-69
2021/06/13 14:07:07;;;;;;;1.85;1.00;;;;;;;;;;5052522;28;20396;-69
2021/06/13 14:09:33;;;;;;;1.65;1.20;;;;;;;;;;5052669;28;20419;-69
2021/06/13 14:12:00;;;;;;;2.25;1.00;;;;;;;;;;5034952;28;20048;-69
2021/06/13 14:14:28;;;;;;;2.53;1.08;;;;;;;;;;5051683;28;20052;-69
2021/06/13 14:16:55;;;;;;;4.00;0.90;;;;;;;;;;5051817;28;20049;-68
2021/06/13 14:19:23;;;;;;;3.63;1.10;;;;;;;;;;5052440;28;20512;-67
2021/06/13 14:21:52;;;;;;;1.10;0.98;;;;;;;;;;5052421;28;20102;-67
2021/06/13 14:24:20;;;;;;;2.90;1.23;;;;;;;;;;5048580;28;20096;-67
2021/06/13 14:26:49;;;;;;;1.13;1.00;;;;;;;;;;5046909;28;20569;-69
2021/06/13 14:29:15;;;;;;;2.30;1.30;;;;;;;;;;5051367;28;20049;-68
2021/06/13 14:31:42;;;;;;;2.45;1.30;;;;;;;;;;5051134;28;20523;-68
2021/06/13 14:34:09;;;;;;;2.97;1.40;;;;;;;;;;5051760;28;20092;-68
2021/06/13 14:36:35;;;;;;;2.28;1.08;;;;;;;;;;5051934;28;20084;-67
2021/06/13 14:39:02;;;;;;;1.75;1.15;;;;;;;;;;5018283;28;20092;-68
2021/06/13 14:41:29;;;;;;;1.67;0.90;;;;;;;;;;5048917;28;20087;-68
2021/06/13 14:43:56;;;;;;;2.60;1.10;;;;;;;;;;5050230;28;20056;-68
2021/06/13 14:46:22;;;;;;;2.78;1.15;;;;;;;;;;5049752;28;20045;-67
2021/06/13 14:48:49;;;;;;;1.25;1.10;;;;;;;;;;5049940;28;20052;-67
2021/06/13 14:51:16;;;;;;;3.15;1.38;;;;;;;;;;5051170;28;20085;-67
2021/06/13 14:53:50;;;;;;;2.53;1.10;;;;;;;;;;5051540;28;20053;-67
2021/06/13 14:56:17;;;;;;;1.05;1.00;;;;;;;;;;5051938;28;20045;-67
2021/06/13 14:58:44;;;;;;;3.50;1.80;;;;;;;;;;5051833;28;20079;-67
2021/06/13 15:01:11;;;;;;;2.30;1.33;;;;;;;;;;5051742;28;20049;-67
2021/06/13 15:03:37;;;;;;;4.93;1.23;;;;;;;;;;5051504;28;20056;-67
2021/06/13 15:06:04;;;;;;;1.88;1.30;;;;;;;;;;5051399;28;20045;-67